Time;durP1;ratioP1;P1;durP2;ratioP2;P2;SDS_P1;SDS_P2;PMS_P1;PMS_P2;Temp;Humidity;BMP_temperature;BMP_pressure;BME280_temperature;BME280_humidity;BME280_pressure;Samples;Min_cycle;Max_cycle;Signal;HPM_P1;HPM_P2
2023/12/20 00:00:10;;;;;;;4.45;3.35;;;;;;;;;;5042641;28;20436;-76
2023/12/20 00:02:38;;;;;;;3.90;3.00;;;;;;;;;;5044699;28;20454;-76
2023/12/20 00:05:08;;;;;;;3.70;3.20;;;;;;;;;;5039233;28;20489;-77
2023/12/20 00:07:38;;;;;;;4.75;2.88;;;;;;;;;;5038357;28;20508;-77
2023/12/20 00:10:05;;;;;;;3.40;3.10;;;;;;;;;;5041334;28;20487;-77
2023/12/20 00:12:35;;;;;;;3.80;3.50;;;;;;;;;;5037953;28;20786;-76
2023/12/20 00:15:02;;;;;;;3.88;3.47;;;;;;;;;;5040595;28;20521;-78
2023/12/20 00:17:32;;;;;;;3.58;3.28;;;;;;;;;;5039754;28;20975;-77
2023/12/20 00:19:59;;;;;;;3.87;3.47;;;;;;;;;;5042640;28;20456;-76
2023/12/20 00:22:26;;;;;;;4.63;3.13;;;;;;;;;;5039227;28;20479;-77
2023/12/20 00:24:56;;;;;;;2.95;2.70;;;;;;;;;;5039763;28;20441;-76
2023/12/20 00:27:23;;;;;;;3.67;3.25;;;;;;;;;;5038791;28;20433;-77
2023/12/20 00:29:50;;;;;;;4.35;3.13;;;;;;;;;;5041757;28;20444;-76
2023/12/20 00:32:18;;;;;;;3.45;2.97;;;;;;;;;;5038640;28;20461;-76
2023/12/20 00:34:50;;;;;;;3.65;2.92;;;;;;;;;;5035166;28;20447;-76
2023/12/20 00:37:17;;;;;;;3.15;2.92;;;;;;;;;;5036592;28;20488;-76
2023/12/20 00:39:45;;;;;;;3.17;2.78;;;;;;;;;;5036199;28;20433;-76
2023/12/20 00:42:14;;;;;;;2.88;2.63;;;;;;;;;;5045035;28;20429;-76
2023/12/20 00:44:44;;;;;;;2.88;2.67;;;;;;;;;;5034950;28;20807;-77
2023/12/20 00:47:11;;;;;;;2.70;2.50;;;;;;;;;;5032553;28;20430;-81
2023/12/20 00:49:44;;;;;;;2.60;2.40;;;;;;;;;;5035323;28;21144;-77
2023/12/20 00:52:11;;;;;;;2.85;2.65;;;;;;;;;;5036763;28;20440;-77
2023/12/20 00:54:39;;;;;;;2.47;2.30;;;;;;;;;;5045905;28;20440;-78
2023/12/20 00:57:06;;;;;;;2.50;2.30;;;;;;;;;;5046052;28;20455;-77
2023/12/20 00:59:33;;;;;;;2.20;2.10;;;;;;;;;;5040835;28;20485;-77
2023/12/20 01:02:00;;;;;;;2.00;1.90;;;;;;;;;;5033954;28;20462;-77
2023/12/20 01:04:27;;;;;;;2.05;1.95;;;;;;;;;;5041505;28;20490;-77
2023/12/20 01:06:55;;;;;;;2.35;2.15;;;;;;;;;;5040462;28;20928;-77
2023/12/20 01:09:26;;;;;;;3.33;2.20;;;;;;;;;;5025259;28;20470;-77
2023/12/20 01:11:53;;;;;;;2.20;2.00;;;;;;;;;;5037795;28;20920;-77
2023/12/20 01:14:21;;;;;;;2.40;2.20;;;;;;;;;;5034921;28;20430;-77
2023/12/20 01:16:48;;;;;;;2.03;1.92;;;;;;;;;;5042924;28;20512;-77
2023/12/20 01:19:17;;;;;;;2.30;2.10;;;;;;;;;;5041058;28;20442;-77
2023/12/20 01:21:47;;;;;;;2.30;2.10;;;;;;;;;;5048129;28;20439;-78
2023/12/20 01:24:14;;;;;;;2.05;1.88;;;;;;;;;;5044631;28;20426;-77
2023/12/20 01:26:42;;;;;;;1.90;1.80;;;;;;;;;;5039839;28;20422;-77
2023/12/20 01:29:09;;;;;;;2.00;1.90;;;;;;;;;;5038864;28;20441;-77
2023/12/20 01:31:36;;;;;;;1.92;1.83;;;;;;;;;;5035239;28;20516;-77
2023/12/20 01:34:03;;;;;;;1.70;1.60;;;;;;;;;;5042620;28;20431;-77
2023/12/20 01:36:31;;;;;;;1.80;1.70;;;;;;;;;;5044605;28;20437;-77
2023/12/20 01:38:58;;;;;;;1.80;1.70;;;;;;;;;;5042838;28;20518;-77
2023/12/20 01:41:25;;;;;;;2.10;1.98;;;;;;;;;;5041632;28;20427;-77
2023/12/20 01:43:53;;;;;;;1.90;1.80;;;;;;;;;;5046152;28;20517;-77
2023/12/20 01:46:20;;;;;;;2.03;1.92;;;;;;;;;;5042745;28;20458;-77
2023/12/20 01:48:51;;;;;;;2.25;2.15;;;;;;;;;;5033968;28;20430;-77
2023/12/20 01:51:20;;;;;;;2.53;2.30;;;;;;;;;;5041875;28;20429;-77
2023/12/20 01:53:47;;;;;;;2.15;2.05;;;;;;;;;;5040588;28;20435;-77
2023/12/20 01:56:15;;;;;;;2.22;2.00;;;;;;;;;;5032652;28;20437;-77
2023/12/20 01:58:45;;;;;;;2.35;2.17;;;;;;;;;;5040550;28;20454;-77
2023/12/20 02:01:13;;;;;;;2.30;2.10;;;;;;;;;;5046930;28;20433;-77
2023/12/20 02:03:43;;;;;;;2.13;2.03;;;;;;;;;;5031878;28;20433;-77
2023/12/20 02:06:11;;;;;;;2.00;1.90;;;;;;;;;;5031329;28;20435;-76
2023/12/20 02:08:38;;;;;;;2.40;2.20;;;;;;;;;;5038166;28;20984;-77
2023/12/20 02:11:05;;;;;;;2.50;2.30;;;;;;;;;;5040833;28;21016;-77
2023/12/20 02:13:32;;;;;;;2.20;2.10;;;;;;;;;;5032780;28;20431;-77
2023/12/20 02:16:01;;;;;;;2.55;2.35;;;;;;;;;;5043107;28;20463;-77
2023/12/20 02:18:28;;;;;;;3.08;2.78;;;;;;;;;;5047625;28;20911;-78
2023/12/20 02:20:56;;;;;;;2.40;2.30;;;;;;;;;;5040395;28;20434;-78
2023/12/20 02:23:23;;;;;;;2.90;2.67;;;;;;;;;;5040342;28;20514;-78
2023/12/20 02:25:50;;;;;;;2.50;2.30;;;;;;;;;;5048491;28;20919;-77
2023/12/20 02:28:21;;;;;;;2.70;2.30;;;;;;;;;;5032179;28;20434;-77
2023/12/20 02:30:49;;;;;;;2.50;2.30;;;;;;;;;;5037049;28;20436;-77
2023/12/20 02:33:17;;;;;;;2.40;2.20;;;;;;;;;;5038381;28;20455;-76
2023/12/20 02:35:44;;;;;;;2.50;2.40;;;;;;;;;;5040300;28;20435;-78
2023/12/20 02:38:11;;;;;;;2.38;2.28;;;;;;;;;;5037954;28;20575;-78
2023/12/20 02:40:39;;;;;;;2.10;2.00;;;;;;;;;;5040870;28;20524;-75
2023/12/20 02:43:06;;;;;;;2.20;2.10;;;;;;;;;;5031576;28;21177;-76
2023/12/20 02:45:33;;;;;;;2.30;2.05;;;;;;;;;;5030993;28;20430;-76
2023/12/20 02:48:00;;;;;;;2.40;2.20;;;;;;;;;;5036490;28;20425;-76
2023/12/20 02:50:28;;;;;;;2.40;2.20;;;;;;;;;;5039677;28;20431;-76
2023/12/20 02:52:55;;;;;;;2.15;2.05;;;;;;;;;;5041429;28;20499;-76
2023/12/20 02:55:22;;;;;;;2.35;1.92;;;;;;;;;;5051103;28;20463;-76
2023/12/20 02:57:49;;;;;;;2.10;1.98;;;;;;;;;;5034919;28;20451;-76
2023/12/20 03:00:17;;;;;;;2.22;2.13;;;;;;;;;;5037209;28;20485;-76
2023/12/20 03:02:46;;;;;;;4.00;1.92;;;;;;;;;;5037698;28;21153;-76
2023/12/20 03:05:16;;;;;;;1.95;1.85;;;;;;;;;;5040979;28;20464;-75
2023/12/20 03:07:47;;;;;;;2.03;1.92;;;;;;;;;;5038484;28;20454;-75
2023/12/20 03:10:18;;;;;;;1.83;1.77;;;;;;;;;;5034501;28;20488;-75
2023/12/20 03:12:52;;;;;;;2.00;1.90;;;;;;;;;;5035957;28;20438;-76
2023/12/20 03:15:20;;;;;;;1.98;1.88;;;;;;;;;;5041965;28;20487;-76
2023/12/20 03:17:47;;;;;;;1.90;1.80;;;;;;;;;;5041128;28;20441;-75
2023/12/20 03:20:15;;;;;;;1.80;1.70;;;;;;;;;;5042258;28;20429;-75
2023/12/20 03:22:42;;;;;;;2.10;1.90;;;;;;;;;;5037215;28;20425;-77
2023/12/20 03:25:16;;;;;;;1.57;1.57;;;;;;;;;;5037097;28;20926;-75
2023/12/20 03:27:44;;;;;;;2.22;2.08;;;;;;;;;;5038189;28;20487;-77
2023/12/20 03:30:11;;;;;;;1.90;1.80;;;;;;;;;;5038192;28;20530;-75
2023/12/20 03:32:41;;;;;;;2.20;2.10;;;;;;;;;;5033788;28;20437;-76
2023/12/20 03:35:09;;;;;;;2.55;1.98;;;;;;;;;;5042538;28;20469;-76
2023/12/20 03:37:36;;;;;;;1.90;1.80;;;;;;;;;;5031906;28;20435;-76
2023/12/20 03:40:10;;;;;;;1.80;1.70;;;;;;;;;;5046797;28;20444;-76
2023/12/20 03:42:37;;;;;;;1.70;1.60;;;;;;;;;;5038607;28;20427;-76
2023/12/20 03:45:04;;;;;;;1.70;1.60;;;;;;;;;;5036493;28;20481;-75
2023/12/20 03:47:31;;;;;;;1.58;1.48;;;;;;;;;;5037527;28;20827;-74
2023/12/20 03:49:59;;;;;;;1.50;1.40;;;;;;;;;;5037661;28;20435;-74
2023/12/20 03:52:26;;;;;;;1.90;1.53;;;;;;;;;;5034725;28;20441;-74
2023/12/20 03:54:53;;;;;;;1.65;1.60;;;;;;;;;;5032769;28;20483;-74
2023/12/20 03:57:20;;;;;;;1.85;1.75;;;;;;;;;;5040318;28;20832;-74
2023/12/20 03:59:48;;;;;;;1.80;1.70;;;;;;;;;;5031411;28;20437;-75
2023/12/20 04:02:15;;;;;;;2.10;2.00;;;;;;;;;;5043380;28;20477;-75
2023/12/20 04:04:42;;;;;;;1.90;1.80;;;;;;;;;;5045185;28;20470;-75
2023/12/20 04:07:13;;;;;;;2.00;1.90;;;;;;;;;;5037657;28;20426;-75
2023/12/20 04:09:41;;;;;;;1.95;1.85;;;;;;;;;;5032575;28;20478;-74
2023/12/20 04:12:08;;;;;;;1.60;1.50;;;;;;;;;;5035704;28;20463;-75
2023/12/20 04:14:35;;;;;;;1.55;1.55;;;;;;;;;;5035173;28;20431;-75
2023/12/20 04:17:05;;;;;;;1.60;1.50;;;;;;;;;;5039084;28;20953;-75
2023/12/20 04:19:32;;;;;;;1.70;1.60;;;;;;;;;;5057441;28;20494;-75
2023/12/20 04:21:59;;;;;;;1.35;1.30;;;;;;;;;;5034277;28;20439;-75
2023/12/20 04:24:27;;;;;;;1.52;1.42;;;;;;;;;;5040559;28;20456;-75
2023/12/20 04:26:54;;;;;;;1.50;1.40;;;;;;;;;;5047247;28;20500;-75
2023/12/20 04:29:21;;;;;;;1.42;1.38;;;;;;;;;;5037158;28;20501;-75
2023/12/20 04:31:53;;;;;;;1.38;1.38;;;;;;;;;;5038231;28;22107;-75
2023/12/20 04:34:21;;;;;;;1.30;1.30;;;;;;;;;;5040590;28;20516;-75
2023/12/20 04:36:51;;;;;;;1.10;1.10;;;;;;;;;;5040979;28;20462;-75
2023/12/20 04:39:18;;;;;;;1.23;1.20;;;;;;;;;;5040046;28;20615;-75
2023/12/20 04:41:47;;;;;;;1.00;1.00;;;;;;;;;;5041932;28;20429;-75
2023/12/20 04:44:14;;;;;;;0.98;0.90;;;;;;;;;;5043201;28;20504;-74
2023/12/20 04:46:42;;;;;;;0.88;0.88;;;;;;;;;;5040859;28;20437;-74
2023/12/20 04:49:12;;;;;;;0.82;0.82;;;;;;;;;;5044192;28;20510;-75
2023/12/20 04:51:39;;;;;;;1.00;1.00;;;;;;;;;;5048796;28;20425;-75
2023/12/20 04:54:06;;;;;;;1.10;1.10;;;;;;;;;;5037370;28;20433;-75
2023/12/20 04:56:33;;;;;;;1.30;1.25;;;;;;;;;;5039281;28;20510;-73
2023/12/20 04:59:01;;;;;;;1.20;1.20;;;;;;;;;;5043116;28;20968;-74
2023/12/20 05:01:30;;;;;;;1.40;1.30;;;;;;;;;;5042594;28;20425;-74
2023/12/20 05:03:57;;;;;;;1.10;1.10;;;;;;;;;;5039791;28;20441;-73
2023/12/20 05:06:25;;;;;;;1.30;1.20;;;;;;;;;;5050053;28;20441;-72
2023/12/20 05:08:52;;;;;;;1.30;1.30;;;;;;;;;;5037228;28;20431;-74
2023/12/20 05:11:19;;;;;;;1.48;1.40;;;;;;;;;;5045013;28;20439;-73
2023/12/20 05:13:46;;;;;;;1.30;1.20;;;;;;;;;;5041888;28;20922;-73
2023/12/20 05:16:17;;;;;;;1.38;1.33;;;;;;;;;;5043016;28;20515;-73
2023/12/20 05:18:46;;;;;;;1.20;1.20;;;;;;;;;;5045930;28;20429;-73
2023/12/20 05:21:13;;;;;;;2.00;1.55;;;;;;;;;;5040037;28;20430;-73
2023/12/20 05:23:40;;;;;;;4.60;1.77;;;;;;;;;;5040093;28;20428;-73
2023/12/20 05:26:07;;;;;;;3.35;1.20;;;;;;;;;;5031435;28;20928;-73
2023/12/20 05:28:34;;;;;;;1.30;1.20;;;;;;;;;;5033818;28;20883;-75
2023/12/20 05:31:02;;;;;;;1.55;1.20;;;;;;;;;;5037716;28;20551;-74
2023/12/20 05:33:29;;;;;;;3.53;1.27;;;;;;;;;;5042994;28;20442;-77
2023/12/20 05:35:59;;;;;;;3.75;1.27;;;;;;;;;;5039641;28;20442;-75
2023/12/20 05:38:30;;;;;;;1.90;1.40;;;;;;;;;;5040297;28;20511;-75
2023/12/20 05:41:00;;;;;;;2.60;1.50;;;;;;;;;;5046729;28;20435;-75
2023/12/20 05:43:27;;;;;;;3.38;1.00;;;;;;;;;;5036689;28;20969;-75
2023/12/20 05:45:54;;;;;;;4.22;1.70;;;;;;;;;;5033613;28;20496;-75
2023/12/20 05:48:21;;;;;;;3.20;1.30;;;;;;;;;;5047563;28;20425;-75
2023/12/20 05:50:49;;;;;;;4.97;1.73;;;;;;;;;;5033155;28;20485;-75
2023/12/20 05:53:16;;;;;;;3.53;1.20;;;;;;;;;;5030376;28;20513;-73
2023/12/20 05:55:43;;;;;;;2.55;1.70;;;;;;;;;;5036629;28;20500;-73
2023/12/20 05:58:10;;;;;;;4.00;1.80;;;;;;;;;;5039549;28;20437;-73
2023/12/20 06:00:37;;;;;;;1.98;1.38;;;;;;;;;;5038008;28;20447;-75
2023/12/20 06:03:05;;;;;;;3.17;1.40;;;;;;;;;;5037211;28;20526;-73
2023/12/20 06:05:32;;;;;;;4.05;1.20;;;;;;;;;;5045293;28;20437;-73
2023/12/20 06:08:02;;;;;;;3.88;1.20;;;;;;;;;;5034855;28;20429;-73
2023/12/20 06:10:30;;;;;;;2.60;1.37;;;;;;;;;;5039847;28;20433;-73
2023/12/20 06:12:58;;;;;;;2.90;1.35;;;;;;;;;;5040713;28;20439;-73
2023/12/20 06:15:26;;;;;;;3.20;1.10;;;;;;;;;;5044535;28;20831;-71
2023/12/20 06:17:53;;;;;;;3.28;1.30;;;;;;;;;;5045146;28;20823;-71
2023/12/20 06:20:20;;;;;;;2.45;1.67;;;;;;;;;;5042053;28;20437;-71
2023/12/20 06:22:48;;;;;;;2.63;1.20;;;;;;;;;;5046724;28;20490;-71
2023/12/20 06:25:15;;;;;;;5.78;1.67;;;;;;;;;;5038807;28;20436;-72
2023/12/20 06:27:42;;;;;;;3.75;1.25;;;;;;;;;;5034343;28;20484;-71
2023/12/20 06:30:10;;;;;;;2.60;1.45;;;;;;;;;;5047705;28;20494;-71
2023/12/20 06:32:39;;;;;;;3.15;1.33;;;;;;;;;;5047258;28;20508;-72
2023/12/20 06:35:06;;;;;;;1.80;1.33;;;;;;;;;;5046703;28;20436;-72
2023/12/20 06:37:34;;;;;;;3.17;1.58;;;;;;;;;;5035274;28;20918;-71
2023/12/20 06:40:01;;;;;;;1.40;1.25;;;;;;;;;;5036119;28;20518;-71
2023/12/20 06:42:29;;;;;;;2.63;1.40;;;;;;;;;;5040339;28;20447;-72
2023/12/20 06:45:01;;;;;;;1.52;1.20;;;;;;;;;;5040150;28;20921;-71
2023/12/20 06:47:28;;;;;;;3.40;1.60;;;;;;;;;;5040561;28;20455;-72
2023/12/20 06:49:58;;;;;;;1.80;1.20;;;;;;;;;;5034886;28;20430;-72
2023/12/20 06:52:25;;;;;;;4.28;1.40;;;;;;;;;;5038507;28;20799;-72
2023/12/20 06:54:53;;;;;;;2.35;1.30;;;;;;;;;;5037880;28;20460;-72
2023/12/20 06:57:25;;;;;;;2.65;1.63;;;;;;;;;;5044104;28;20512;-71
2023/12/20 06:59:55;;;;;;;4.13;1.70;;;;;;;;;;5039018;28;20437;-72
2023/12/20 07:02:30;;;;;;;6.03;2.05;;;;;;;;;;5039697;28;20434;-72
2023/12/20 07:04:57;;;;;;;4.60;1.80;;;;;;;;;;5045376;28;20425;-72
2023/12/20 07:07:24;;;;;;;5.17;2.17;;;;;;;;;;5039721;28;20435;-72
2023/12/20 07:09:54;;;;;;;4.05;1.80;;;;;;;;;;5042934;28;20495;-72
2023/12/20 07:12:21;;;;;;;3.70;1.70;;;;;;;;;;5038916;28;20432;-73
2023/12/20 07:14:49;;;;;;;3.60;2.08;;;;;;;;;;5046880;28;20508;-72
2023/12/20 07:17:16;;;;;;;5.00;2.20;;;;;;;;;;5033843;28;20514;-72
2023/12/20 07:19:43;;;;;;;5.13;2.00;;;;;;;;;;5038567;28;20429;-72
2023/12/20 07:22:10;;;;;;;4.63;1.80;;;;;;;;;;5032914;28;20927;-72
2023/12/20 07:24:37;;;;;;;5.55;1.98;;;;;;;;;;5044070;28;20429;-72
2023/12/20 07:27:05;;;;;;;4.60;1.85;;;;;;;;;;5039508;28;20431;-72
2023/12/20 07:29:32;;;;;;;4.78;2.08;;;;;;;;;;5044885;28;20508;-72
2023/12/20 07:31:59;;;;;;;3.75;2.10;;;;;;;;;;5041405;28;20487;-71
2023/12/20 07:34:26;;;;;;;3.88;1.77;;;;;;;;;;5037337;28;20885;-71
2023/12/20 07:36:54;;;;;;;2.70;1.80;;;;;;;;;;5031515;28;20458;-72
2023/12/20 07:39:21;;;;;;;1.88;1.55;;;;;;;;;;5035361;28;20880;-72
2023/12/20 07:41:48;;;;;;;3.58;1.70;;;;;;;;;;5038462;28;20433;-72
2023/12/20 07:44:15;;;;;;;4.65;1.88;;;;;;;;;;5039657;28;20434;-71
2023/12/20 07:46:43;;;;;;;2.95;1.50;;;;;;;;;;5043275;28;20899;-72
2023/12/20 07:49:11;;;;;;;5.35;1.45;;;;;;;;;;5034510;28;20431;-73
2023/12/20 07:51:39;;;;;;;3.70;1.50;;;;;;;;;;5032922;28;20941;-72
2023/12/20 07:54:08;;;;;;;2.70;1.25;;;;;;;;;;5030633;28;20426;-72
2023/12/20 07:56:35;;;;;;;5.53;1.40;;;;;;;;;;5040477;28;20479;-69
2023/12/20 07:59:02;;;;;;;5.22;1.10;;;;;;;;;;5034217;28;20432;-72
2023/12/20 08:01:30;;;;;;;4.80;1.30;;;;;;;;;;5034935;28;20434;-70
2023/12/20 08:04:00;;;;;;;6.13;1.23;;;;;;;;;;5041362;28;20429;-69
2023/12/20 08:06:27;;;;;;;3.90;1.30;;;;;;;;;;5039182;28;20462;-70
2023/12/20 08:08:55;;;;;;;6.95;1.00;;;;;;;;;;5032743;28;20428;-72
2023/12/20 08:11:32;;;;;;;4.47;1.30;;;;;;;;;;5042304;28;20433;-71
2023/12/20 08:14:00;;;;;;;5.82;1.55;;;;;;;;;;5035976;28;20483;-71
2023/12/20 08:16:27;;;;;;;2.25;1.25;;;;;;;;;;5044603;28;20433;-72
2023/12/20 08:18:57;;;;;;;3.92;1.50;;;;;;;;;;5040847;28;20433;-71
2023/12/20 08:21:25;;;;;;;4.40;1.20;;;;;;;;;;5036082;28;20935;-72
2023/12/20 08:23:52;;;;;;;4.43;0.93;;;;;;;;;;5033853;28;20435;-71
2023/12/20 08:26:21;;;;;;;3.45;0.93;;;;;;;;;;5034691;28;20430;-71
2023/12/20 08:28:48;;;;;;;4.07;1.20;;;;;;;;;;5046801;28;20760;-71
2023/12/20 08:31:16;;;;;;;3.88;1.38;;;;;;;;;;5041539;28;20524;-71
2023/12/20 08:33:45;;;;;;;3.37;1.30;;;;;;;;;;5045641;28;20481;-71
2023/12/20 08:36:12;;;;;;;3.33;1.00;;;;;;;;;;5043696;28;20473;-72
2023/12/20 08:38:40;;;;;;;3.67;1.30;;;;;;;;;;5030510;28;20492;-72
2023/12/20 08:41:07;;;;;;;4.28;1.10;;;;;;;;;;5039538;28;20428;-71
2023/12/20 08:43:36;;;;;;;4.20;1.20;;;;;;;;;;5040486;28;20852;-72
2023/12/20 08:46:04;;;;;;;4.38;1.05;;;;;;;;;;5036772;28;20511;-72
2023/12/20 08:48:33;;;;;;;3.17;1.08;;;;;;;;;;5033649;28;20533;-72
2023/12/20 08:51:00;;;;;;;5.07;1.20;;;;;;;;;;5032078;28;20436;-72
2023/12/20 08:53:27;;;;;;;4.10;1.30;;;;;;;;;;5037311;28;20438;-72
2023/12/20 08:55:55;;;;;;;5.60;1.10;;;;;;;;;;5034689;28;20467;-72
2023/12/20 08:58:25;;;;;;;3.63;1.10;;;;;;;;;;5037915;28;20434;-72
2023/12/20 09:00:52;;;;;;;5.40;1.30;;;;;;;;;;5036014;28;20437;-71
2023/12/20 09:03:19;;;;;;;4.97;1.38;;;;;;;;;;5036511;28;20435;-72
2023/12/20 09:05:47;;;;;;;3.88;1.10;;;;;;;;;;5044365;28;20437;-71
2023/12/20 09:08:14;;;;;;;5.03;1.20;;;;;;;;;;5034873;28;20767;-71
2023/12/20 09:10:41;;;;;;;3.25;1.15;;;;;;;;;;5035379;28;20444;-71
2023/12/20 09:13:11;;;;;;;4.28;1.20;;;;;;;;;;5041024;28;20921;-71
2023/12/20 09:15:43;;;;;;;3.47;1.10;;;;;;;;;;5040690;28;20436;-71
2023/12/20 09:18:11;;;;;;;6.28;1.45;;;;;;;;;;5041009;28;20516;-71
2023/12/20 09:20:38;;;;;;;2.67;1.20;;;;;;;;;;5038315;28;20467;-71
2023/12/20 09:23:13;;;;;;;4.68;1.52;;;;;;;;;;5032609;28;20435;-71
2023/12/20 09:25:46;;;;;;;5.07;1.40;;;;;;;;;;5037437;28;20975;-71
2023/12/20 09:28:13;;;;;;;3.85;1.08;;;;;;;;;;5040629;28;20430;-71
2023/12/20 09:30:44;;;;;;;4.20;1.38;;;;;;;;;;5037406;28;20428;-71
2023/12/20 09:33:12;;;;;;;4.07;1.50;;;;;;;;;;5045551;28;20969;-71
2023/12/20 09:35:40;;;;;;;3.67;1.27;;;;;;;;;;5042151;28;20469;-71
2023/12/20 09:38:07;;;;;;;3.53;1.20;;;;;;;;;;5037876;28;20438;-71
2023/12/20 09:40:35;;;;;;;3.83;1.40;;;;;;;;;;5039694;28;20425;-71
2023/12/20 09:43:09;;;;;;;3.78;1.30;;;;;;;;;;5044876;28;20474;-71
2023/12/20 09:45:36;;;;;;;6.33;1.37;;;;;;;;;;5033277;28;20454;-70
2023/12/20 09:48:04;;;;;;;3.88;1.15;;;;;;;;;;5037551;28;20427;-70
2023/12/20 09:50:33;;;;;;;3.90;1.20;;;;;;;;;;5035509;28;20430;-70
2023/12/20 09:53:04;;;;;;;4.32;1.08;;;;;;;;;;5039009;28;20449;-70
2023/12/20 09:55:33;;;;;;;2.47;1.17;;;;;;;;;;5039970;28;20434;-70
2023/12/20 09:58:00;;;;;;;4.88;1.50;;;;;;;;;;5039667;28;20443;-70
2023/12/20 10:00:27;;;;;;;4.60;1.50;;;;;;;;;;5045701;28;20482;-71
2023/12/20 10:02:58;;;;;;;6.32;1.30;;;;;;;;;;5046190;28;20429;-70
2023/12/20 10:05:30;;;;;;;4.73;1.43;;;;;;;;;;5044761;28;20425;-70
2023/12/20 10:07:58;;;;;;;3.78;1.35;;;;;;;;;;5044119;28;21128;-70
2023/12/20 10:10:26;;;;;;;3.97;1.50;;;;;;;;;;5034560;28;20431;-71
2023/12/20 10:13:12;;;;;;;2.33;1.38;;;;;;;;;;5041693;28;20435;-71
2023/12/20 10:15:40;;;;;;;4.32;1.30;;;;;;;;;;5044491;28;20785;-70
2023/12/20 10:18:12;;;;;;;4.57;1.52;;;;;;;;;;5039436;28;20484;-70
2023/12/20 10:20:41;;;;;;;1.92;1.00;;;;;;;;;;5045699;28;20430;-71
2023/12/20 10:23:09;;;;;;;3.53;1.17;;;;;;;;;;5037393;28;20444;-71
2023/12/20 10:25:36;;;;;;;7.00;1.60;;;;;;;;;;5035508;28;20436;-71
2023/12/20 10:28:23;;;;;;;4.00;1.73;;;;;;;;;;5040147;28;20863;-70
2023/12/20 10:30:53;;;;;;;3.83;1.40;;;;;;;;;;5038909;28;20425;-71
2023/12/20 10:33:25;;;;;;;3.77;1.17;;;;;;;;;;5035984;28;20437;-71
2023/12/20 10:35:53;;;;;;;2.27;1.40;;;;;;;;;;5044288;28;20950;-72
2023/12/20 10:38:24;;;;;;;4.85;1.30;;;;;;;;;;5043634;28;20530;-70
2023/12/20 10:40:55;;;;;;;3.47;1.23;;;;;;;;;;5042286;28;20433;-70
2023/12/20 10:43:23;;;;;;;3.80;1.25;;;;;;;;;;5039931;28;20435;-70
2023/12/20 10:45:52;;;;;;;5.20;1.20;;;;;;;;;;5044545;28;21041;-70
2023/12/20 10:48:26;;;;;;;5.10;1.20;;;;;;;;;;5044075;28;20429;-70
2023/12/20 10:50:56;;;;;;;2.58;1.33;;;;;;;;;;5034921;28;20431;-70
2023/12/20 10:53:24;;;;;;;2.47;1.20;;;;;;;;;;5042276;28;20437;-70
2023/12/20 10:55:53;;;;;;;5.70;1.25;;;;;;;;;;5034806;28;20782;-71
2023/12/20 10:58:20;;;;;;;3.30;1.20;;;;;;;;;;5034698;28;20813;-70
2023/12/20 11:00:53;;;;;;;5.45;1.25;;;;;;;;;;5045290;28;20433;-70
2023/12/20 11:03:24;;;;;;;3.20;1.00;;;;;;;;;;5040143;28;20520;-70
2023/12/20 11:06:01;;;;;;;4.23;1.40;;;;;;;;;;5042281;28;20515;-69
2023/12/20 11:08:32;;;;;;;6.32;1.30;;;;;;;;;;5039684;28;21116;-70
2023/12/20 11:11:09;;;;;;;3.92;1.33;;;;;;;;;;5041800;28;21123;-70
2023/12/20 11:14:11;;;;;;;4.45;1.33;;;;;;;;;;5033099;28;20817;-70
2023/12/20 11:16:39;;;;;;;3.90;1.48;;;;;;;;;;4982846;28;20507;-69
2023/12/20 11:19:21;;;;;;;5.13;1.48;;;;;;;;;;4980758;28;20535;-70
2023/12/20 11:21:48;;;;;;;3.45;1.20;;;;;;;;;;4983456;28;20521;-70
2023/12/20 11:24:17;;;;;;;5.00;1.40;;;;;;;;;;4982734;28;20522;-70
2023/12/20 11:26:48;;;;;;;6.05;1.60;;;;;;;;;;4984910;28;20571;-70
2023/12/20 11:29:32;;;;;;;4.85;1.42;;;;;;;;;;4983879;28;20434;-69
2023/12/20 11:32:01;;;;;;;2.75;1.40;;;;;;;;;;4982547;28;20434;-71
2023/12/20 11:34:28;;;;;;;2.75;1.20;;;;;;;;;;4985456;28;20434;-71
2023/12/20 11:37:03;;;;;;;3.25;1.50;;;;;;;;;;4969139;28;20505;-70
2023/12/20 11:39:31;;;;;;;3.13;1.40;;;;;;;;;;4972797;28;20521;-71
2023/12/20 11:42:04;;;;;;;3.78;1.30;;;;;;;;;;4983904;28;20576;-70
2023/12/20 11:44:32;;;;;;;4.60;1.58;;;;;;;;;;4985058;28;20481;-70
2023/12/20 11:46:59;;;;;;;5.28;1.80;;;;;;;;;;4981229;28;20928;-70
2023/12/20 11:49:29;;;;;;;3.88;1.33;;;;;;;;;;4986322;28;20434;-70
2023/12/20 11:51:56;;;;;;;4.32;1.33;;;;;;;;;;5045485;28;20425;-70
2023/12/20 11:54:26;;;;;;;4.38;1.35;;;;;;;;;;5040180;28;20437;-70
2023/12/20 11:56:53;;;;;;;5.35;1.30;;;;;;;;;;5036274;28;20440;-70
2023/12/20 11:59:21;;;;;;;4.22;1.00;;;;;;;;;;5035130;28;20431;-70
2023/12/20 12:01:51;;;;;;;4.10;1.30;;;;;;;;;;5039539;28;20482;-71
2023/12/20 12:04:19;;;;;;;2.83;1.20;;;;;;;;;;5039017;28;20437;-70
2023/12/20 12:06:46;;;;;;;8.05;1.60;;;;;;;;;;5033142;28;20431;-70
2023/12/20 12:09:15;;;;;;;4.35;1.27;;;;;;;;;;5035461;28;20458;-70
2023/12/20 12:11:42;;;;;;;2.80;1.40;;;;;;;;;;5033942;28;20466;-69
2023/12/20 12:14:09;;;;;;;3.72;1.27;;;;;;;;;;5034545;28;20935;-70
2023/12/20 12:16:37;;;;;;;4.73;1.30;;;;;;;;;;5037222;28;20437;-70
2023/12/20 12:19:04;;;;;;;4.00;1.42;;;;;;;;;;5041010;28;20517;-70
2023/12/20 12:21:32;;;;;;;4.90;1.27;;;;;;;;;;5043864;28;20509;-70
2023/12/20 12:24:12;;;;;;;4.53;1.23;;;;;;;;;;5039354;28;20441;-69
2023/12/20 12:26:40;;;;;;;4.53;1.30;;;;;;;;;;5035120;28;20512;-70
2023/12/20 12:29:13;;;;;;;4.90;1.08;;;;;;;;;;5040278;28;20967;-69
2023/12/20 12:31:41;;;;;;;3.20;1.10;;;;;;;;;;5037502;28;20462;-69
2023/12/20 12:34:11;;;;;;;4.90;1.33;;;;;;;;;;5032545;28;20427;-69
2023/12/20 12:36:38;;;;;;;5.95;1.50;;;;;;;;;;5035284;28;20501;-71
2023/12/20 12:39:06;;;;;;;2.97;1.30;;;;;;;;;;5042153;28;20516;-70
2023/12/20 12:41:36;;;;;;;3.95;1.17;;;;;;;;;;5039875;28;20485;-70
2023/12/20 12:44:06;;;;;;;4.70;1.30;;;;;;;;;;5033011;28;20528;-70
2023/12/20 12:46:44;;;;;;;4.45;1.30;;;;;;;;;;5041951;28;20434;-71
2023/12/20 12:49:11;;;;;;;3.25;1.52;;;;;;;;;;5042405;28;20429;-70
2023/12/20 12:51:39;;;;;;;3.55;1.45;;;;;;;;;;5036441;28;20519;-70
2023/12/20 12:54:06;;;;;;;4.93;1.30;;;;;;;;;;5041411;28;20421;-70
2023/12/20 12:56:36;;;;;;;3.65;1.35;;;;;;;;;;5040572;28;20912;-70
2023/12/20 12:59:05;;;;;;;6.07;1.40;;;;;;;;;;5040659;28;20433;-70
2023/12/20 13:01:32;;;;;;;5.00;1.38;;;;;;;;;;5038315;28;20448;-70
2023/12/20 13:04:10;;;;;;;4.30;1.40;;;;;;;;;;5046071;28;20433;-70
2023/12/20 13:06:39;;;;;;;4.00;1.20;;;;;;;;;;5044734;28;20574;-69
2023/12/20 13:09:06;;;;;;;2.55;1.25;;;;;;;;;;5043610;28;20484;-69
2023/12/20 13:11:35;;;;;;;4.00;1.30;;;;;;;;;;5044811;28;20439;-69
2023/12/20 13:14:03;;;;;;;5.10;1.40;;;;;;;;;;5047201;28;20437;-69
2023/12/20 13:16:31;;;;;;;3.23;1.33;;;;;;;;;;5041370;28;20435;-69
2023/12/20 13:18:59;;;;;;;3.67;1.30;;;;;;;;;;5041594;28;20436;-69
2023/12/20 13:21:27;;;;;;;4.43;1.48;;;;;;;;;;5034679;28;20433;-69
2023/12/20 13:23:54;;;;;;;3.55;1.27;;;;;;;;;;5039808;28;20429;-70
2023/12/20 13:26:21;;;;;;;4.25;1.70;;;;;;;;;;5045297;28;20510;-69
2023/12/20 13:28:48;;;;;;;5.63;1.30;;;;;;;;;;5035809;28;20940;-69
2023/12/20 13:31:15;;;;;;;3.95;1.60;;;;;;;;;;5038941;28;20433;-69
2023/12/20 13:33:43;;;;;;;4.40;1.35;;;;;;;;;;5040313;28;20435;-69
2023/12/20 13:36:10;;;;;;;4.15;1.33;;;;;;;;;;5044160;28;21058;-69
2023/12/20 13:38:42;;;;;;;2.55;1.40;;;;;;;;;;5044718;28;20430;-68
2023/12/20 13:41:09;;;;;;;1.90;1.10;;;;;;;;;;5045460;28;20459;-68
2023/12/20 13:43:37;;;;;;;3.58;1.40;;;;;;;;;;5043420;28;20544;-69
2023/12/20 13:46:04;;;;;;;1.98;1.20;;;;;;;;;;5044394;28;20437;-69
2023/12/20 13:48:33;;;;;;;4.03;1.10;;;;;;;;;;5039520;28;20433;-69
2023/12/20 13:51:00;;;;;;;2.45;1.30;;;;;;;;;;5037767;28;20993;-69
2023/12/20 13:53:28;;;;;;;3.17;1.40;;;;;;;;;;5037656;28;20926;-68
2023/12/20 13:55:55;;;;;;;2.75;1.00;;;;;;;;;;5048296;28;20520;-70
2023/12/20 13:58:25;;;;;;;2.67;1.17;;;;;;;;;;5041170;28;21133;-70
2023/12/20 14:00:52;;;;;;;3.00;1.20;;;;;;;;;;5042212;28;20748;-70
2023/12/20 14:03:19;;;;;;;3.85;1.23;;;;;;;;;;5046663;28;20521;-69
2023/12/20 14:05:47;;;;;;;3.60;1.30;;;;;;;;;;5043677;28;20433;-69
2023/12/20 14:08:14;;;;;;;4.90;1.13;;;;;;;;;;5034039;28;20787;-69
2023/12/20 14:10:41;;;;;;;6.53;1.33;;;;;;;;;;5038389;28;20435;-70
2023/12/20 14:13:09;;;;;;;2.42;1.08;;;;;;;;;;5041731;28;20484;-70
2023/12/20 14:15:37;;;;;;;4.40;1.23;;;;;;;;;;5040237;28;20434;-70
2023/12/20 14:18:06;;;;;;;3.20;0.90;;;;;;;;;;5037403;28;20698;-69
2023/12/20 14:20:38;;;;;;;3.80;1.38;;;;;;;;;;5039354;28;20431;-69
2023/12/20 14:23:05;;;;;;;2.55;1.20;;;;;;;;;;5040839;28;20501;-69
2023/12/20 14:25:33;;;;;;;2.60;1.20;;;;;;;;;;5041210;28;20919;-69
2023/12/20 14:28:15;;;;;;;4.63;1.13;;;;;;;;;;5039851;28;20429;-69
2023/12/20 14:30:42;;;;;;;2.40;1.13;;;;;;;;;;5040133;28;20429;-69
2023/12/20 14:33:09;;;;;;;3.85;1.08;;;;;;;;;;5037489;28;20439;-68
2023/12/20 14:35:37;;;;;;;3.25;1.10;;;;;;;;;;5035011;28;20520;-69
2023/12/20 14:38:04;;;;;;;3.38;1.20;;;;;;;;;;5039595;28;20442;-69
2023/12/20 14:40:31;;;;;;;4.80;1.15;;;;;;;;;;5036439;28;20443;-69
2023/12/20 14:42:59;;;;;;;4.00;1.05;;;;;;;;;;5033376;28;20523;-69
2023/12/20 14:45:27;;;;;;;2.50;1.13;;;;;;;;;;5036269;28;20454;-69
2023/12/20 14:47:55;;;;;;;4.33;1.30;;;;;;;;;;5039214;28;20444;-69
2023/12/20 14:50:24;;;;;;;2.78;1.13;;;;;;;;;;5038591;28;20449;-69